sensor_id;sensor_type;location;lat;lon;timestamp;pressure;altitude;pressure_sealevel;temperature;humidity
73558;BME280;61829;53.286;10.434;2023-02-11T00:00:18;102629.91;;;4.82;89.34
73558;BME280;61829;53.286;10.434;2023-02-11T00:03:04;102629.91;;;4.82;89.60
73558;BME280;61829;53.286;10.434;2023-02-11T00:05:30;102644.88;;;4.85;89.58
73558;BME280;61829;53.286;10.434;2023-02-11T00:07:56;102637.59;;;4.87;89.67
73558;BME280;61829;53.286;10.434;2023-02-11T00:10:22;102633.97;;;4.88;89.79
73558;BME280;61829;53.286;10.434;2023-02-11T00:12:48;102636.66;;;4.88;90.53
73558;BME280;61829;53.286;10.434;2023-02-11T00:15:14;102619.66;;;4.89;90.56
73558;BME280;61829;53.286;10.434;2023-02-11T00:17:40;102623.06;;;4.91;90.35
73558;BME280;61829;53.286;10.434;2023-02-11T00:20:06;102620.28;;;4.92;90.21
73558;BME280;61829;53.286;10.434;2023-02-11T00:22:32;102624.69;;;4.93;90.29
73558;BME280;61829;53.286;10.434;2023-02-11T00:24:58;102624.56;;;4.95;90.63
73558;BME280;61829;53.286;10.434;2023-02-11T00:27:24;102627.16;;;4.97;90.26
73558;BME280;61829;53.286;10.434;2023-02-11T00:29:49;102638.81;;;4.95;90.53
73558;BME280;61829;53.286;10.434;2023-02-11T00:32:15;102646.81;;;4.95;90.50
73558;BME280;61829;53.286;10.434;2023-02-11T00:34:43;102644.88;;;4.98;91.00
73558;BME280;61829;53.286;10.434;2023-02-11T00:37:12;102642.22;;;4.98;90.74
73558;BME280;61829;53.286;10.434;2023-02-11T00:39:38;102638.59;;;4.99;91.10
73558;BME280;61829;53.286;10.434;2023-02-11T00:42:04;102629.63;;;5.00;90.59
73558;BME280;61829;53.286;10.434;2023-02-11T00:44:30;102625.25;;;4.99;91.22
73558;BME280;61829;53.286;10.434;2023-02-11T00:46:56;102619.91;;;4.99;90.84
73558;BME280;61829;53.286;10.434;2023-02-11T00:49:21;102614.44;;;5.00;91.41
73558;BME280;61829;53.286;10.434;2023-02-11T00:51:49;102610.91;;;5.00;91.23
73558;BME280;61829;53.286;10.434;2023-02-11T00:54:15;102617.88;;;5.02;91.29
73558;BME280;61829;53.286;10.434;2023-02-11T00:56:41;102610.69;;;5.03;91.79
73558;BME280;61829;53.286;10.434;2023-02-11T00:59:07;102610.69;;;5.03;92.35
73558;BME280;61829;53.286;10.434;2023-02-11T01:01:34;102592.00;;;5.03;92.56
73558;BME280;61829;53.286;10.434;2023-02-11T01:03:59;102592.97;;;5.02;92.45
73558;BME280;61829;53.286;10.434;2023-02-11T01:06:25;102601.94;;;5.01;92.13
73558;BME280;61829;53.286;10.434;2023-02-11T01:08:51;102589.44;;;5.01;92.86
73558;BME280;61829;53.286;10.434;2023-02-11T01:11:18;102586.78;;;5.01;92.90
73558;BME280;61829;53.286;10.434;2023-02-11T01:13:45;102579.81;;;4.99;93.00
73558;BME280;61829;53.286;10.434;2023-02-11T01:16:12;102583.34;;;4.99;93.21
73558;BME280;61829;53.286;10.434;2023-02-11T01:18:38;102580.75;;;4.98;93.64
73558;BME280;61829;53.286;10.434;2023-02-11T01:21:04;102577.16;;;4.99;93.50
73558;BME280;61829;53.286;10.434;2023-02-11T01:23:30;102578.84;;;5.00;92.91
73558;BME280;61829;53.286;10.434;2023-02-11T01:25:56;102557.47;;;5.00;94.25
73558;BME280;61829;53.286;10.434;2023-02-11T01:28:24;102560.16;;;5.00;93.72
73558;BME280;61829;53.286;10.434;2023-02-11T01:30:50;102547.63;;;5.00;93.86
73558;BME280;61829;53.286;10.434;2023-02-11T01:33:19;102534.19;;;5.02;94.01
73558;BME280;61829;53.286;10.434;2023-02-11T01:35:45;102542.22;;;5.02;94.67
73558;BME280;61829;53.286;10.434;2023-02-11T01:38:19;102523.50;;;5.02;94.61
73558;BME280;61829;53.286;10.434;2023-02-11T01:40:55;102523.38;;;5.03;94.81
73558;BME280;61829;53.286;10.434;2023-02-11T01:43:23;102525.19;;;5.03;95.17
73558;BME280;61829;53.286;10.434;2023-02-11T01:45:57;102525.31;;;5.01;96.10
73558;BME280;61829;53.286;10.434;2023-02-11T01:48:43;102538.78;;;5.00;96.13
73558;BME280;61829;53.286;10.434;2023-02-11T01:51:17;102531.53;;;5.02;96.03
73558;BME280;61829;53.286;10.434;2023-02-11T01:53:47;102539.53;;;5.02;96.19
73558;BME280;61829;53.286;10.434;2023-02-11T01:56:34;102537.59;;;5.04;95.92
73558;BME280;61829;53.286;10.434;2023-02-11T01:59:25;102542.09;;;5.03;95.86
73558;BME280;61829;53.286;10.434;2023-02-11T02:01:57;102531.41;;;5.03;96.11
73558;BME280;61829;53.286;10.434;2023-02-11T02:04:27;102531.31;;;5.05;96.14
73558;BME280;61829;53.286;10.434;2023-02-11T02:07:07;102531.41;;;5.03;96.60
73558;BME280;61829;53.286;10.434;2023-02-11T02:09:40;102533.13;;;5.04;96.75
73558;BME280;61829;53.286;10.434;2023-02-11T02:12:08;102516.22;;;5.04;96.54
73558;BME280;61829;53.286;10.434;2023-02-11T02:14:37;102512.59;;;5.05;96.45
73558;BME280;61829;53.286;10.434;2023-02-11T02:17:29;102521.38;;;5.07;96.42
73558;BME280;61829;53.286;10.434;2023-02-11T02:40:16;102510.16;;;5.02;97.60
73558;BME280;61829;53.286;10.434;2023-02-11T02:42:44;102519.84;;;5.03;98.50
73558;BME280;61829;53.286;10.434;2023-02-11T02:45:12;102515.59;;;5.00;98.41
73558;BME280;61829;53.286;10.434;2023-02-11T02:47:38;102513.75;;;5.01;98.69
73558;BME280;61829;53.286;10.434;2023-02-11T02:50:05;102502.13;;;5.02;98.28
73558;BME280;61829;53.286;10.434;2023-02-11T02:52:41;102494.00;;;5.03;97.98
73558;BME280;61829;53.286;10.434;2023-02-11T03:00:17;102483.97;;;5.07;98.47
73558;BME280;61829;53.286;10.434;2023-02-11T03:08:02;102480.31;;;5.08;98.42
73558;BME280;61829;53.286;10.434;2023-02-11T03:10:36;102477.53;;;5.09;98.55
73558;BME280;61829;53.286;10.434;2023-02-11T03:13:04;102479.34;;;5.09;98.23
73558;BME280;61829;53.286;10.434;2023-02-11T03:15:33;102485.44;;;5.11;98.19
73558;BME280;61829;53.286;10.434;2023-02-11T03:18:03;102488.97;;;5.11;98.65
73558;BME280;61829;53.286;10.434;2023-02-11T03:20:34;102488.88;;;5.13;98.10
73558;BME280;61829;53.286;10.434;2023-02-11T03:25:37;102480.63;;;5.16;98.49
73558;BME280;61829;53.286;10.434;2023-02-11T03:28:12;102487.91;;;5.14;99.21
73558;BME280;61829;53.286;10.434;2023-02-11T03:30:48;102480.63;;;5.16;99.44
73558;BME280;61829;53.286;10.434;2023-02-11T03:33:21;102485.97;;;5.16;99.63
73558;BME280;61829;53.286;10.434;2023-02-11T03:36:14;102487.69;;;5.17;99.73
73558;BME280;61829;53.286;10.434;2023-02-11T03:38:50;102478.81;;;5.16;99.49
73558;BME280;61829;53.286;10.434;2023-02-11T03:41:20;102477.84;;;5.17;100.00
73558;BME280;61829;53.286;10.434;2023-02-11T03:43:50;102468.97;;;5.17;99.61
73558;BME280;61829;53.286;10.434;2023-02-11T03:46:20;102464.47;;;5.17;99.93
73558;BME280;61829;53.286;10.434;2023-02-11T03:48:54;102475.16;;;5.17;100.00
73558;BME280;61829;53.286;10.434;2023-02-11T03:51:22;102470.69;;;5.18;100.00
73558;BME280;61829;53.286;10.434;2023-02-11T03:53:51;102459.13;;;5.17;100.00
73558;BME280;61829;53.286;10.434;2023-02-11T03:56:22;102464.25;;;5.21;100.00
73558;BME280;61829;53.286;10.434;2023-02-11T03:58:50;102460.50;;;5.23;100.00
73558;BME280;61829;53.286;10.434;2023-02-11T04:01:16;102469.41;;;5.24;99.82
73558;BME280;61829;53.286;10.434;2023-02-11T04:03:42;102464.06;;;5.24;99.69
73558;BME280;61829;53.286;10.434;2023-02-11T04:06:09;102459.44;;;5.26;99.28
73558;BME280;61829;53.286;10.434;2023-02-11T04:08:35;102456.53;;;5.29;99.56
73558;BME280;61829;53.286;10.434;2023-02-11T04:11:01;102461.66;;;5.32;99.11
73558;BME280;61829;53.286;10.434;2023-02-11T04:13:26;102457.19;;;5.32;98.73
73558;BME280;61829;53.286;10.434;2023-02-11T04:15:52;102449.91;;;5.34;98.81
73558;BME280;61829;53.286;10.434;2023-02-11T04:18:18;102446.28;;;5.35;99.06
73558;BME280;61829;53.286;10.434;2023-02-11T04:20:44;102459.53;;;5.37;98.50
73558;BME280;61829;53.286;10.434;2023-02-11T04:23:09;102463.94;;;5.38;98.21
73558;BME280;61829;53.286;10.434;2023-02-11T04:25:35;102460.06;;;5.42;98.49
73558;BME280;61829;53.286;10.434;2023-02-11T04:28:01;102459.72;;;5.47;97.49
73558;BME280;61829;53.286;10.434;2023-02-11T04:30:27;102474.78;;;5.48;97.30
73558;BME280;61829;53.286;10.434;2023-02-11T04:32:52;102476.41;;;5.50;97.56
73558;BME280;61829;53.286;10.434;2023-02-11T04:35:21;102472.88;;;5.50;97.23
73558;BME280;61829;53.286;10.434;2023-02-11T04:37:47;102487.72;;;5.54;96.92
73558;BME280;61829;53.286;10.434;2023-02-11T04:40:13;102482.13;;;5.57;96.45
73558;BME280;61829;53.286;10.434;2023-02-11T04:42:39;102482.03;;;5.58;97.26
73558;BME280;61829;53.286;10.434;2023-02-11T04:45:05;102482.81;;;5.60;96.71
73558;BME280;61829;53.286;10.434;2023-02-11T04:47:32;102467.38;;;5.64;96.79
73558;BME280;61829;53.286;10.434;2023-02-11T04:49:58;102471.75;;;5.65;96.29
73558;BME280;61829;53.286;10.434;2023-02-11T04:52:24;102469.91;;;5.66;95.90
73558;BME280;61829;53.286;10.434;2023-02-11T04:54:50;102468.84;;;5.68;96.48
73558;BME280;61829;53.286;10.434;2023-02-11T04:57:16;102459.88;;;5.69;95.74
73558;BME280;61829;53.286;10.434;2023-02-11T04:59:42;102475.78;;;5.71;95.45
73558;BME280;61829;53.286;10.434;2023-02-11T05:02:07;102468.63;;;5.71;96.13
73558;BME280;61829;53.286;10.434;2023-02-11T05:04:33;102457.91;;;5.71;95.71
73558;BME280;61829;53.286;10.434;2023-02-11T05:06:59;102459.75;;;5.71;96.08
73558;BME280;61829;53.286;10.434;2023-02-11T05:09:25;102461.34;;;5.73;95.52
73558;BME280;61829;53.286;10.434;2023-02-11T05:11:51;102455.00;;;5.74;96.07
73558;BME280;61829;53.286;10.434;2023-02-11T05:14:17;102458.44;;;5.76;95.77
73558;BME280;61829;53.286;10.434;2023-02-11T05:16:42;102453.00;;;5.78;96.11
73558;BME280;61829;53.286;10.434;2023-02-11T05:19:08;102453.84;;;5.78;95.38
73558;BME280;61829;53.286;10.434;2023-02-11T05:21:34;102450.19;;;5.79;96.10
73558;BME280;61829;53.286;10.434;2023-02-11T05:24:00;102450.81;;;5.83;95.68
73558;BME280;61829;53.286;10.434;2023-02-11T05:26:26;102449.72;;;5.85;95.72
73558;BME280;61829;53.286;10.434;2023-02-11T05:28:52;102455.06;;;5.85;95.21
73558;BME280;61829;53.286;10.434;2023-02-11T05:31:17;102443.28;;;5.88;95.45
73558;BME280;61829;53.286;10.434;2023-02-11T05:33:43;102460.31;;;5.87;95.08
73558;BME280;61829;53.286;10.434;2023-02-11T05:36:11;102446.94;;;5.87;95.69
73558;BME280;61829;53.286;10.434;2023-02-11T05:38:38;102458.50;;;5.88;96.08
73558;BME280;61829;53.286;10.434;2023-02-11T05:41:04;102441.47;;;5.89;95.75
73558;BME280;61829;53.286;10.434;2023-02-11T05:43:31;102440.28;;;5.93;96.10
73558;BME280;61829;53.286;10.434;2023-02-11T05:45:57;102440.28;;;5.93;95.65
73558;BME280;61829;53.286;10.434;2023-02-11T05:48:26;102439.34;;;5.94;95.69
73558;BME280;61829;53.286;10.434;2023-02-11T05:50:51;102443.84;;;5.93;95.43
73558;BME280;61829;53.286;10.434;2023-02-11T05:53:20;102440.94;;;5.96;96.19
73558;BME280;61829;53.286;10.434;2023-02-11T05:55:46;102445.44;;;5.96;95.93
73558;BME280;61829;53.286;10.434;2023-02-11T05:58:13;102429.28;;;5.97;95.89
73558;BME280;61829;53.286;10.434;2023-02-11T06:00:38;102440.94;;;5.96;96.61
73558;BME280;61829;53.286;10.434;2023-02-11T06:03:04;102448.00;;;5.97;97.00
73558;BME280;61829;53.286;10.434;2023-02-11T06:05:31;102433.53;;;6.00;96.49
73558;BME280;61829;53.286;10.434;2023-02-11T06:07:57;102431.59;;;6.02;96.65
73558;BME280;61829;53.286;10.434;2023-02-11T06:10:28;102427.22;;;6.01;96.65
73558;BME280;61829;53.286;10.434;2023-02-11T06:13:00;102420.03;;;6.01;96.35
73558;BME280;61829;53.286;10.434;2023-02-11T06:15:33;102403.88;;;6.03;96.28
73558;BME280;61829;53.286;10.434;2023-02-11T06:17:59;102419.94;;;6.03;97.34
73558;BME280;61829;53.286;10.434;2023-02-11T06:20:26;102426.13;;;6.03;97.00
73558;BME280;61829;53.286;10.434;2023-02-11T06:22:52;102424.19;;;6.05;96.50
73558;BME280;61829;53.286;10.434;2023-02-11T06:25:18;102421.41;;;6.07;97.47
73558;BME280;61829;53.286;10.434;2023-02-11T06:27:43;102418.72;;;6.07;96.94
73558;BME280;61829;53.286;10.434;2023-02-11T06:30:10;102421.25;;;6.08;97.06
73558;BME280;61829;53.286;10.434;2023-02-11T06:32:36;102423.00;;;6.10;97.17
73558;BME280;61829;53.286;10.434;2023-02-11T06:35:02;102422.84;;;6.11;97.12
73558;BME280;61829;53.286;10.434;2023-02-11T06:37:30;102408.28;;;6.15;97.33
73558;BME280;61829;53.286;10.434;2023-02-11T06:39:57;102419.94;;;6.14;97.11
73558;BME280;61829;53.286;10.434;2023-02-11T06:42:23;102425.19;;;6.16;97.76
73558;BME280;61829;53.286;10.434;2023-02-11T06:44:52;102421.53;;;6.17;97.37
73558;BME280;61829;53.286;10.434;2023-02-11T06:47:18;102428.50;;;6.19;97.28
73558;BME280;61829;53.286;10.434;2023-02-11T06:49:44;102429.34;;;6.20;97.24
73558;BME280;61829;53.286;10.434;2023-02-11T06:52:13;102426.56;;;6.21;96.79
73558;BME280;61829;53.286;10.434;2023-02-11T06:54:39;102432.66;;;6.23;97.69
73558;BME280;61829;53.286;10.434;2023-02-11T06:57:04;102422.78;;;6.24;97.19
73558;BME280;61829;53.286;10.434;2023-02-11T06:59:33;102427.06;;;6.26;97.24
73558;BME280;61829;53.286;10.434;2023-02-11T07:01:59;102422.56;;;6.27;97.15
73558;BME280;61829;53.286;10.434;2023-02-11T07:04:25;102422.47;;;6.28;97.66
73558;BME280;61829;53.286;10.434;2023-02-11T07:06:56;102427.66;;;6.30;97.28
73558;BME280;61829;53.286;10.434;2023-02-11T07:09:25;102431.94;;;6.33;97.46
73558;BME280;61829;53.286;10.434;2023-02-11T07:11:51;102441.56;;;6.35;97.19
73558;BME280;61829;53.286;10.434;2023-02-11T07:14:17;102448.75;;;6.35;97.47
73558;BME280;61829;53.286;10.434;2023-02-11T07:16:43;102441.44;;;6.37;97.60
73558;BME280;61829;53.286;10.434;2023-02-11T07:19:11;102451.19;;;6.38;97.38
73558;BME280;61829;53.286;10.434;2023-02-11T07:21:37;102453.13;;;6.36;97.75
73558;BME280;61829;53.286;10.434;2023-02-11T07:24:07;102457.28;;;6.40;97.07
73558;BME280;61829;53.286;10.434;2023-02-11T07:26:34;102460.69;;;6.42;97.45
73558;BME280;61829;53.286;10.434;2023-02-11T07:29:06;102464.22;;;6.42;97.56
73558;BME280;61829;53.286;10.434;2023-02-11T07:31:32;102469.47;;;6.44;97.66
73558;BME280;61829;53.286;10.434;2023-02-11T07:33:59;102464.09;;;6.44;97.36
73558;BME280;61829;53.286;10.434;2023-02-11T07:36:26;102463.03;;;6.46;97.28
73558;BME280;61829;53.286;10.434;2023-02-11T07:38:52;102463.75;;;6.48;97.97
73558;BME280;61829;53.286;10.434;2023-02-11T07:41:20;102473.59;;;6.48;97.74
73558;BME280;61829;53.286;10.434;2023-02-11T07:43:47;102467.28;;;6.49;98.06
73558;BME280;61829;53.286;10.434;2023-02-11T07:46:21;102471.66;;;6.50;97.80
73558;BME280;61829;53.286;10.434;2023-02-11T07:48:50;102469.13;;;6.48;98.64
73558;BME280;61829;53.286;10.434;2023-02-11T07:51:28;102469.97;;;6.49;99.01
73558;BME280;61829;53.286;10.434;2023-02-11T07:53:56;102472.66;;;6.49;99.16
73558;BME280;61829;53.286;10.434;2023-02-11T07:56:22;102482.63;;;6.47;99.45
73558;BME280;61829;53.286;10.434;2023-02-11T07:58:49;102491.63;;;6.46;99.80
73558;BME280;61829;53.286;10.434;2023-02-11T08:01:23;102477.50;;;6.44;100.00
73558;BME280;61829;53.286;10.434;2023-02-11T08:03:54;102485.38;;;6.45;100.00
73558;BME280;61829;53.286;10.434;2023-02-11T08:06:22;102493.56;;;6.44;100.00
73558;BME280;61829;53.286;10.434;2023-02-11T08:08:49;102489.91;;;6.45;100.00
73558;BME280;61829;53.286;10.434;2023-02-11T08:11:17;102497.94;;;6.45;100.00
73558;BME280;61829;53.286;10.434;2023-02-11T08:13:43;102502.56;;;6.43;100.00
73558;BME280;61829;53.286;10.434;2023-02-11T08:16:19;102500.63;;;6.45;100.00
73558;BME280;61829;53.286;10.434;2023-02-11T08:18:46;102505.13;;;6.44;100.00
73558;BME280;61829;53.286;10.434;2023-02-11T08:21:11;102494.31;;;6.46;100.00
73558;BME280;61829;53.286;10.434;2023-02-11T08:23:41;102495.25;;;6.45;100.00
73558;BME280;61829;53.286;10.434;2023-02-11T08:26:11;102496.09;;;6.45;100.00
73558;BME280;61829;53.286;10.434;2023-02-11T08:28:38;102506.81;;;6.45;100.00
73558;BME280;61829;53.286;10.434;2023-02-11T08:31:12;102508.53;;;6.46;100.00
73558;BME280;61829;53.286;10.434;2023-02-11T08:33:38;102517.44;;;6.47;100.00
73558;BME280;61829;53.286;10.434;2023-02-11T08:36:15;102523.53;;;6.49;100.00
73558;BME280;61829;53.286;10.434;2023-02-11T08:38:42;102523.28;;;6.52;100.00
73558;BME280;61829;53.286;10.434;2023-02-11T08:41:08;102526.81;;;6.52;100.00
73558;BME280;61829;53.286;10.434;2023-02-11T08:43:35;102534.00;;;6.52;100.00
73558;BME280;61829;53.286;10.434;2023-02-11T08:46:02;102542.66;;;6.56;100.00
73558;BME280;61829;53.286;10.434;2023-02-11T08:48:28;102558.63;;;6.57;100.00
73558;BME280;61829;53.286;10.434;2023-02-11T08:50:55;102568.25;;;6.60;100.00
73558;BME280;61829;53.286;10.434;2023-02-11T08:53:21;102564.59;;;6.61;100.00
73558;BME280;61829;53.286;10.434;2023-02-11T08:55:51;102550.88;;;6.65;100.00
73558;BME280;61829;53.286;10.434;2023-02-11T08:58:17;102546.34;;;6.66;100.00
73558;BME280;61829;53.286;10.434;2023-02-11T09:00:44;102540.75;;;6.69;100.00
73558;BME280;61829;53.286;10.434;2023-02-11T09:03:11;102547.56;;;6.73;100.00
73558;BME280;61829;53.286;10.434;2023-02-11T09:05:45;102555.63;;;6.73;100.00
73558;BME280;61829;53.286;10.434;2023-02-11T09:08:12;102559.13;;;6.73;100.00
73558;BME280;61829;53.286;10.434;2023-02-11T09:10:38;102559.78;;;6.77;100.00
73558;BME280;61829;53.286;10.434;2023-02-11T09:13:05;102554.28;;;6.79;100.00
73558;BME280;61829;53.286;10.434;2023-02-11T09:15:32;102574.63;;;6.81;100.00
73558;BME280;61829;53.286;10.434;2023-02-11T09:17:58;102573.69;;;6.82;100.00
73558;BME280;61829;53.286;10.434;2023-02-11T09:20:25;102572.81;;;6.82;100.00
73558;BME280;61829;53.286;10.434;2023-02-11T09:22:52;102568.09;;;6.85;100.00
73558;BME280;61829;53.286;10.434;2023-02-11T09:25:18;102564.44;;;6.86;100.00
73558;BME280;61829;53.286;10.434;2023-02-11T09:27:45;102571.47;;;6.87;100.00
73558;BME280;61829;53.286;10.434;2023-02-11T09:30:11;102568.47;;;6.92;100.00
73558;BME280;61829;53.286;10.434;2023-02-11T09:32:37;102572.75;;;6.94;100.00
73558;BME280;61829;53.286;10.434;2023-02-11T09:35:04;102563.72;;;6.95;100.00
73558;BME280;61829;53.286;10.434;2023-02-11T09:37:29;102556.41;;;6.97;100.00
73558;BME280;61829;53.286;10.434;2023-02-11T09:39:55;102556.19;;;7.01;100.00
73558;BME280;61829;53.286;10.434;2023-02-11T09:45:04;102574.84;;;7.02;100.00
73558;BME280;61829;53.286;10.434;2023-02-11T09:47:44;102568.59;;;7.02;100.00
73558;BME280;61829;53.286;10.434;2023-02-11T09:50:14;102581.66;;;7.06;100.00
73558;BME280;61829;53.286;10.434;2023-02-11T09:55:30;102583.00;;;7.12;100.00
73558;BME280;61829;53.286;10.434;2023-02-11T09:57:56;102584.47;;;7.16;100.00
73558;BME280;61829;53.286;10.434;2023-02-11T10:00:27;102585.34;;;7.16;100.00
73558;BME280;61829;53.286;10.434;2023-02-11T10:24:55;102605.09;;;7.27;100.00
73558;BME280;61829;53.286;10.434;2023-02-11T10:27:34;102600.31;;;7.30;100.00
73558;BME280;61829;53.286;10.434;2023-02-11T10:32:45;102589.59;;;7.30;100.00
73558;BME280;61829;53.286;10.434;2023-02-11T10:35:19;102582.53;;;7.29;100.00
73558;BME280;61829;53.286;10.434;2023-02-11T10:37:46;102582.44;;;7.31;100.00
73558;BME280;61829;53.286;10.434;2023-02-11T10:40:16;102578.88;;;7.30;100.00
73558;BME280;61829;53.286;10.434;2023-02-11T10:42:47;102588.66;;;7.31;100.00
73558;BME280;61829;53.286;10.434;2023-02-11T10:45:22;102587.56;;;7.34;100.00
73558;BME280;61829;53.286;10.434;2023-02-11T10:47:49;102580.34;;;7.34;100.00
73558;BME280;61829;53.286;10.434;2023-02-11T10:50:30;102588.41;;;7.34;100.00
73558;BME280;61829;53.286;10.434;2023-02-11T10:53:11;102588.25;;;7.36;100.00
73558;BME280;61829;53.286;10.434;2023-02-11T10:55:38;102592.66;;;7.37;100.00
73558;BME280;61829;53.286;10.434;2023-02-11T10:58:04;102606.94;;;7.37;100.00
73558;BME280;61829;53.286;10.434;2023-02-11T11:03:03;102610.47;;;7.38;100.00
73558;BME280;61829;53.286;10.434;2023-02-11T11:05:48;102622.19;;;7.37;100.00
73558;BME280;61829;53.286;10.434;2023-02-11T11:08:15;102611.19;;;7.40;100.00
73558;BME280;61829;53.286;10.434;2023-02-11T11:10:44;102601.31;;;7.40;100.00
73558;BME280;61829;53.286;10.434;2023-02-11T11:13:38;102602.16;;;7.41;100.00
73558;BME280;61829;53.286;10.434;2023-02-11T11:18:41;102609.25;;;7.42;100.00
73558;BME280;61829;53.286;10.434;2023-02-11T11:24:04;102606.09;;;7.48;100.00
73558;BME280;61829;53.286;10.434;2023-02-11T11:30:04;102612.66;;;7.44;100.00
73558;BME280;61829;53.286;10.434;2023-02-11T11:32:26;102618.03;;;7.44;100.00
73558;BME280;61829;53.286;10.434;2023-02-11T11:34:55;102623.63;;;7.41;100.00
73558;BME280;61829;53.286;10.434;2023-02-11T11:37:25;102630.72;;;7.42;100.00
73558;BME280;61829;53.286;10.434;2023-02-11T11:42:36;102628.75;;;7.44;100.00
73558;BME280;61829;53.286;10.434;2023-02-11T11:45:23;102625.13;;;7.45;100.00
73558;BME280;61829;53.286;10.434;2023-02-11T11:47:58;102632.91;;;7.48;100.00
73558;BME280;61829;53.286;10.434;2023-02-11T11:52:59;102621.94;;;7.51;100.00
73558;BME280;61829;53.286;10.434;2023-02-11T11:57:56;102635.84;;;7.56;100.00
73558;BME280;61829;53.286;10.434;2023-02-11T12:00:38;102633.66;;;7.61;100.00
73558;BME280;61829;53.286;10.434;2023-02-11T12:06:04;102620.25;;;7.61;99.89
73558;BME280;61829;53.286;10.434;2023-02-11T12:17:22;102619.28;;;7.62;100.00
73558;BME280;61829;53.286;10.434;2023-02-11T12:25:31;102610.38;;;7.62;100.00
73558;BME280;61829;53.286;10.434;2023-02-11T12:34:06;102605.13;;;7.60;100.00
73558;BME280;61829;53.286;10.434;2023-02-11T12:39:41;102619.13;;;7.64;100.00
73558;BME280;61829;53.286;10.434;2023-02-11T12:56:53;102639.91;;;7.73;100.00
73558;BME280;61829;53.286;10.434;2023-02-11T13:02:32;102645.25;;;7.73;100.00
73558;BME280;61829;53.286;10.434;2023-02-11T13:05:24;102640.75;;;7.74;100.00
73558;BME280;61829;53.286;10.434;2023-02-11T13:07:50;102632.19;;;7.69;100.00
73558;BME280;61829;53.286;10.434;2023-02-11T13:13:04;102625.97;;;7.68;100.00
73558;BME280;61829;53.286;10.434;2023-02-11T13:15:45;102613.53;;;7.67;100.00
73558;BME280;61829;53.286;10.434;2023-02-11T13:21:23;102617.19;;;7.66;100.00
73558;BME280;61829;53.286;10.434;2023-02-11T13:29:25;102628.78;;;7.67;100.00
73558;BME280;61829;53.286;10.434;2023-02-11T13:32:05;102618.78;;;7.69;100.00
73558;BME280;61829;53.286;10.434;2023-02-11T13:37:25;102615.59;;;7.75;100.00
73558;BME280;61829;53.286;10.434;2023-02-11T13:40:19;102618.53;;;7.72;100.00
73558;BME280;61829;53.286;10.434;2023-02-11T13:42:55;102624.88;;;7.71;100.00
73558;BME280;61829;53.286;10.434;2023-02-11T13:47:47;102631.47;;;7.78;100.00
73558;BME280;61829;53.286;10.434;2023-02-11T13:50:22;102643.78;;;7.80;100.00
73558;BME280;61829;53.286;10.434;2023-02-11T13:52:56;102641.94;;;7.81;100.00
73558;BME280;61829;53.286;10.434;2023-02-11T13:55:24;102632.94;;;7.82;100.00
73558;BME280;61829;53.286;10.434;2023-02-11T14:00:46;102638.06;;;7.85;100.00
73558;BME280;61829;53.286;10.434;2023-02-11T14:17:16;102660.97;;;7.89;100.00
73558;BME280;61829;53.286;10.434;2023-02-11T14:19:47;102663.91;;;7.86;100.00
73558;BME280;61829;53.286;10.434;2023-02-11T14:24:50;102675.50;;;7.86;100.00
73558;BME280;61829;53.286;10.434;2023-02-11T14:27:34;102685.53;;;7.84;100.00
73558;BME280;61829;53.286;10.434;2023-02-11T14:38:18;102691.13;;;7.93;100.00
73558;BME280;61829;53.286;10.434;2023-02-11T14:41:05;102692.00;;;7.93;100.00
73558;BME280;61829;53.286;10.434;2023-02-11T14:43:44;102700.16;;;7.92;100.00
73558;BME280;61829;53.286;10.434;2023-02-11T14:46:14;102701.25;;;7.89;100.00
73558;BME280;61829;53.286;10.434;2023-02-11T14:48:44;102711.03;;;7.90;100.00
73558;BME280;61829;53.286;10.434;2023-02-11T14:51:24;102712.81;;;7.90;100.00
73558;BME280;61829;53.286;10.434;2023-02-11T14:53:53;102715.03;;;7.84;100.00
73558;BME280;61829;53.286;10.434;2023-02-11T14:56:26;102718.69;;;7.83;100.00
73558;BME280;61829;53.286;10.434;2023-02-11T14:58:53;102723.09;;;7.84;100.00
73558;BME280;61829;53.286;10.434;2023-02-11T15:01:24;102724.91;;;7.84;100.00
73558;BME280;61829;53.286;10.434;2023-02-11T15:03:55;102734.28;;;7.78;100.00
73558;BME280;61829;53.286;10.434;2023-02-11T15:06:44;102741.38;;;7.79;100.00
73558;BME280;61829;53.286;10.434;2023-02-11T15:09:22;102737.84;;;7.79;100.00
73558;BME280;61829;53.286;10.434;2023-02-11T15:11:54;102742.13;;;7.81;100.00
73558;BME280;61829;53.286;10.434;2023-02-11T15:14:30;102744.16;;;7.78;100.00
73558;BME280;61829;53.286;10.434;2023-02-11T15:16:59;102743.31;;;7.77;100.00
73558;BME280;61829;53.286;10.434;2023-02-11T15:19:29;102741.63;;;7.76;100.00
73558;BME280;61829;53.286;10.434;2023-02-11T15:21:57;102744.31;;;7.76;100.00
73558;BME280;61829;53.286;10.434;2023-02-11T15:24:28;102757.81;;;7.75;100.00
73558;BME280;61829;53.286;10.434;2023-02-11T15:26:57;102770.41;;;7.74;100.00
73558;BME280;61829;53.286;10.434;2023-02-11T15:29:25;102772.09;;;7.75;100.00
73558;BME280;61829;53.286;10.434;2023-02-11T15:32:24;102770.28;;;7.76;100.00
73558;BME280;61829;53.286;10.434;2023-02-11T15:34:52;102781.97;;;7.75;100.00
73558;BME280;61829;53.286;10.434;2023-02-11T15:39:46;102781.38;;;7.71;100.00
73558;BME280;61829;53.286;10.434;2023-02-11T15:42:18;102795.53;;;7.73;100.00
73558;BME280;61829;53.286;10.434;2023-02-11T15:44:45;102790.41;;;7.70;100.00
73558;BME280;61829;53.286;10.434;2023-02-11T15:47:15;102779.69;;;7.70;100.00
73558;BME280;61829;53.286;10.434;2023-02-11T15:49:44;102772.81;;;7.66;100.00